createdAt,value
2022-11-01T15:24:46.830Z,12.30
2022-11-01T15:27:22.010Z,12.00
2022-11-01T15:29:53.478Z,12.00
2022-11-01T15:32:33.035Z,12.00
2022-11-01T15:35:08.160Z,12.00
2022-11-01T15:37:38.232Z,12.00
2022-11-01T15:40:27.710Z,12.10
2022-11-01T15:43:03.565Z,12.10
2022-11-01T15:45:34.642Z,12.10
2022-11-01T15:48:13.467Z,12.10
2022-11-01T15:50:46.612Z,12.20
2022-11-01T15:53:20.366Z,12.00
2022-11-01T15:55:57.170Z,11.80
2022-11-01T15:58:28.556Z,11.80
2022-11-01T16:01:01.620Z,11.90
2022-11-01T16:03:41.894Z,11.90
2022-11-01T16:06:19.209Z,12.00
2022-11-01T16:09:00.471Z,12.10
2022-11-01T16:11:31.056Z,12.10
2022-11-01T16:14:08.058Z,12.10
2022-11-01T16:16:55.031Z,12.10
2022-11-01T16:19:28.672Z,12.10
2022-11-01T16:21:59.430Z,12.00
2022-11-01T16:24:27.026Z,12.10
2022-11-01T16:27:00.493Z,12.10
2022-11-01T16:29:42.609Z,12.10
2022-11-01T16:32:30.988Z,12.00
2022-11-01T16:35:00.512Z,12.00
2022-11-01T16:37:30.548Z,12.00
2022-11-01T16:39:59.153Z,11.90
2022-11-01T16:42:27.321Z,11.90
2022-11-01T16:44:57.618Z,12.00
2022-11-01T16:47:24.891Z,11.80
2022-11-01T16:49:56.413Z,11.60
2022-11-01T16:52:23.458Z,11.70
2022-11-01T16:54:54.869Z,11.80
2022-11-01T16:57:27.829Z,11.90
2022-11-01T16:59:55.989Z,11.90
2022-11-01T17:02:29.458Z,12.00
2022-11-01T17:05:09.225Z,12.10
2022-11-01T17:07:36.825Z,12.20
2022-11-01T17:10:19.206Z,12.20
2022-11-01T17:12:46.828Z,12.10
2022-11-01T17:15:17.674Z,12.20
2022-11-01T17:17:47.531Z,12.10
2022-11-01T17:20:30.016Z,12.20
2022-11-01T17:22:58.271Z,12.20
2022-11-01T17:25:28.800Z,12.30
2022-11-01T17:27:56.461Z,12.10
2022-11-01T17:30:26.233Z,12.00
2022-11-01T17:32:53.819Z,12.10
2022-11-01T17:35:24.220Z,12.20
2022-11-01T17:37:54.600Z,12.30
2022-11-01T17:40:25.429Z,12.20
2022-11-01T17:42:52.729Z,12.30
2022-11-01T17:45:19.861Z,12.30
2022-11-01T17:47:49.257Z,12.30
2022-11-01T17:50:17.126Z,12.30
2022-11-01T17:52:47.099Z,12.30
2022-11-01T17:55:15.533Z,12.30
2022-11-01T17:57:43.885Z,12.30
2022-11-01T18:00:12.642Z,12.40
2022-11-01T18:02:39.665Z,12.50
2022-11-01T18:05:09.069Z,12.40
2022-11-01T18:07:40.599Z,12.50
2022-11-01T18:10:40.776Z,12.50
2022-11-01T18:13:10.529Z,12.40
2022-11-01T18:15:47.640Z,12.40
2022-11-01T18:18:19.715Z,12.40
2022-11-01T18:21:07.457Z,12.30
2022-11-01T18:23:36.877Z,12.30
2022-11-01T18:26:05.284Z,12.30
2022-11-01T18:28:39.624Z,12.30
2022-11-01T18:31:35.116Z,12.40
2022-11-01T18:34:27.689Z,12.30
2022-11-01T18:37:16.764Z,12.30
2022-11-01T18:40:03.969Z,12.40
2022-11-01T18:42:32.625Z,12.30
2022-11-01T18:45:16.782Z,12.30
2022-11-01T18:47:50.320Z,12.30
2022-11-01T18:50:24.038Z,12.20
2022-11-01T18:53:03.343Z,12.20
2022-11-01T18:55:33.068Z,12.20
2022-11-01T18:58:20.503Z,12.20
2022-11-01T19:01:13.619Z,12.20
2022-11-01T19:03:41.024Z,12.00
2022-11-01T19:06:20.839Z,12.00
2022-11-01T19:08:57.520Z,11.90
2022-11-01T19:11:29.865Z,11.90
2022-11-01T19:13:59.656Z,11.80
2022-11-01T19:16:27.951Z,11.80
2022-11-01T19:18:54.828Z,11.80
2022-11-01T19:21:23.604Z,11.70
2022-11-01T19:23:54.501Z,11.70
2022-11-01T19:26:26.235Z,11.70
2022-11-01T19:28:53.182Z,11.60
2022-11-01T19:31:37.124Z,11.60
2022-11-01T19:34:13.484Z,11.70
2022-11-01T19:36:44.707Z,11.70
2022-11-01T19:39:33.058Z,11.70
2022-11-01T19:42:26.845Z,11.80
2022-11-01T19:45:33.100Z,11.70
2022-11-01T19:48:03.244Z,11.70
2022-11-01T19:50:45.242Z,11.70
2022-11-01T19:53:40.635Z,11.70
2022-11-01T19:56:20.558Z,11.80
2022-11-01T19:59:07.207Z,11.70
2022-11-01T20:01:43.015Z,11.70
2022-11-01T20:04:15.755Z,11.80
2022-11-01T20:07:19.973Z,11.60
2022-11-01T20:09:48.174Z,11.60
2022-11-01T20:12:19.974Z,11.70
2022-11-01T20:14:51.241Z,11.70
2022-11-01T20:17:18.098Z,11.80
2022-11-01T20:19:46.122Z,11.80
2022-11-01T20:22:19.726Z,11.80
2022-11-01T20:24:47.576Z,11.80
2022-11-01T20:27:47.861Z,11.90
2022-11-01T20:30:19.162Z,11.90
2022-11-01T20:32:51.781Z,11.80
2022-11-01T20:35:19.139Z,11.80
2022-11-01T20:37:50.740Z,11.80
2022-11-01T20:40:24.957Z,11.80
2022-11-01T20:42:54.454Z,11.80
2022-11-01T20:45:21.766Z,11.70
2022-11-01T20:47:59.055Z,11.80
2022-11-01T20:50:27.578Z,11.60
2022-11-01T20:52:56.025Z,11.60
2022-11-01T20:55:23.008Z,11.70
2022-11-01T20:57:53.394Z,11.70
2022-11-01T21:00:20.507Z,11.70
2022-11-01T21:02:47.922Z,11.70
2022-11-01T21:05:21.014Z,11.80
2022-11-01T21:07:48.506Z,11.70
2022-11-01T21:10:46.147Z,11.60
2022-11-01T21:13:37.577Z,11.70
2022-11-01T21:16:28.006Z,11.70
2022-11-01T21:19:04.471Z,11.80
2022-11-01T21:21:46.511Z,11.70
2022-11-01T21:24:40.728Z,11.70
2022-11-01T21:27:13.527Z,11.80
2022-11-01T21:29:42.831Z,11.80
2022-11-01T21:32:42.568Z,11.90
2022-11-01T21:35:20.895Z,11.80
2022-11-01T21:37:56.282Z,11.80
2022-11-01T21:40:28.514Z,11.80
2022-11-01T21:42:58.011Z,11.60
2022-11-01T21:45:30.921Z,11.50
2022-11-01T21:48:26.992Z,11.60
2022-11-01T21:50:56.136Z,11.70
2022-11-01T21:53:25.016Z,11.70
2022-11-01T21:55:51.870Z,11.70
2022-11-01T21:58:22.092Z,11.70
2022-11-01T22:00:49.367Z,11.70
2022-11-01T22:03:19.650Z,11.70
2022-11-01T22:05:56.876Z,11.70
2022-11-01T22:11:23.635Z,11.70
2022-11-01T22:13:51.332Z,11.70
2022-11-01T22:16:18.309Z,11.50
2022-11-01T22:18:49.692Z,11.50
2022-11-01T22:21:17.503Z,11.50
2022-11-01T22:23:47.700Z,11.50
2022-11-01T22:26:25.502Z,11.50
2022-11-01T22:34:52.326Z,11.30
2022-11-01T22:37:28.149Z,11.30
2022-11-01T22:39:55.015Z,11.20
2022-11-01T22:42:23.423Z,11.20
2022-11-01T22:44:50.831Z,11.20
2022-11-01T22:47:29.888Z,11.20
2022-11-01T22:50:02.760Z,11.10
2022-11-01T22:52:36.942Z,11.00
2022-11-01T22:55:05.996Z,11.00
2022-11-01T22:57:44.750Z,11.10
2022-11-01T23:00:44.925Z,11.00
2022-11-01T23:03:38.670Z,11.00
2022-11-01T23:06:34.575Z,11.00
2022-11-01T23:09:15.600Z,10.90
2022-11-01T23:12:21.931Z,10.90
2022-11-01T23:14:52.560Z,10.90
2022-11-01T23:17:32.519Z,10.90
2022-11-01T23:20:07.345Z,10.80
2022-11-01T23:22:36.137Z,10.80
2022-11-01T23:25:06.097Z,10.70
2022-11-01T23:27:39.080Z,10.80
2022-11-01T23:30:09.506Z,10.70
2022-11-01T23:32:37.921Z,10.60
2022-11-01T23:35:18.233Z,10.60
2022-11-01T23:37:46.417Z,10.60
2022-11-01T23:40:21.810Z,10.60
2022-11-01T23:42:49.910Z,10.60
2022-11-01T23:45:41.104Z,10.60
2022-11-01T23:48:09.727Z,10.60
2022-11-01T23:50:37.633Z,10.60
2022-11-01T23:53:09.542Z,10.60
2022-11-01T23:55:52.311Z,10.60
2022-11-01T23:58:31.541Z,10.50
